Time;durP1;ratioP1;P1;durP2;ratioP2;P2;SDS_P1;SDS_P2;PMS_P1;PMS_P2;Temp;Humidity;BMP_temperature;BMP_pressure;BME280_temperature;BME280_humidity;BME280_pressure;Samples;Min_cycle;Max_cycle;Signal;HPM_P1;HPM_P2
2021/03/30 00:01:06;;;;;;;13.35;6.28;;;;;;;16.01;31.46;101196.13;5073191;28;20051;-87
2021/03/30 00:03:33;;;;;;;11.50;6.88;;;;;;;15.98;31.70;101199.81;5073964;28;20048;-87
2021/03/30 00:06:00;;;;;;;13.90;6.53;;;;;;;15.96;31.74;101198.19;5072618;28;20423;-87
2021/03/30 00:08:26;;;;;;;13.57;6.13;;;;;;;15.94;31.73;101203.56;5074028;28;20086;-87
2021/03/30 00:10:53;;;;;;;10.23;6.70;;;;;;;15.90;31.75;101202.84;5072721;28;20052;-87
2021/03/30 00:13:19;;;;;;;12.32;6.82;;;;;;;15.87;31.98;101200.38;5072685;28;20523;-87
2021/03/30 00:15:45;;;;;;;15.77;6.18;;;;;;;15.84;31.73;101200.53;5073430;28;20048;-87
2021/03/30 00:18:12;;;;;;;14.55;6.85;;;;;;;15.81;31.90;101199.88;5073748;28;20057;-87
2021/03/30 00:20:38;;;;;;;15.50;7.65;;;;;;;15.79;32.15;101210.56;5072500;28;20489;-87
2021/03/30 00:23:04;;;;;;;11.80;7.00;;;;;;;15.79;32.21;101215.00;5072671;28;20052;-87
2021/03/30 00:25:30;;;;;;;11.02;6.38;;;;;;;15.77;32.16;101204.47;5073533;28;20044;-87
2021/03/30 00:27:57;;;;;;;10.60;7.20;;;;;;;15.74;32.24;101207.31;5072406;28;20048;-87
2021/03/30 00:30:23;;;;;;;16.92;7.82;;;;;;;15.73;32.32;101203.78;5073700;28;20044;-88
2021/03/30 00:32:49;;;;;;;14.05;7.68;;;;;;;15.70;32.38;101201.31;5073614;28;20049;-87
2021/03/30 00:35:16;;;;;;;12.23;7.28;;;;;;;15.67;32.39;101212.13;5073521;28;20049;-87
2021/03/30 00:37:42;;;;;;;13.60;7.38;;;;;;;15.64;32.53;101209.63;5073423;28;20056;-87
2021/03/30 00:40:10;;;;;;;13.98;7.70;;;;;;;15.60;32.74;101210.72;5072333;28;20512;-87
2021/03/30 00:42:38;;;;;;;10.75;7.28;;;;;;;15.57;32.74;101211.75;5072436;28;20058;-87
2021/03/30 00:45:06;;;;;;;14.05;8.05;;;;;;;15.55;32.90;101212.78;5071896;28;20056;-87
2021/03/30 00:47:33;;;;;;;13.88;7.93;;;;;;;15.54;33.10;101216.34;5072047;28;20049;-87
2021/03/30 00:50:00;;;;;;;19.10;8.93;;;;;;;15.55;33.40;101218.09;5073558;28;20049;-87
2021/03/30 00:52:27;;;;;;;17.90;8.65;;;;;;;15.54;33.18;101213.69;5072727;28;20058;-87
2021/03/30 00:54:54;;;;;;;18.25;7.78;;;;;;;15.53;33.13;101209.34;5072933;28;20094;-87
2021/03/30 00:57:20;;;;;;;17.13;8.15;;;;;;;15.52;33.39;101210.28;5072178;28;20063;-87
2021/03/30 00:59:46;;;;;;;17.00;9.18;;;;;;;15.52;33.28;101212.94;5072143;28;20087;-87
2021/03/30 01:02:13;;;;;;;14.77;8.40;;;;;;;15.50;33.50;101210.38;5072818;28;20444;-86
2021/03/30 01:04:40;;;;;;;18.02;9.30;;;;;;;15.46;33.43;101212.34;5077244;28;20067;-87
2021/03/30 01:07:07;;;;;;;16.00;7.97;;;;;;;15.41;33.50;101209.09;5077301;28;20386;-87
2021/03/30 01:09:52;;;;;;;16.35;9.00;;;;;;;15.33;33.97;101209.47;5076140;28;20048;-87
2021/03/30 01:12:52;;;;;;;13.85;8.25;;;;;;;15.31;34.03;101205.19;5076161;28;20052;-87
2021/03/30 01:15:21;;;;;;;14.52;8.20;;;;;;;15.33;33.61;101203.34;5075844;28;20040;-87
2021/03/30 01:18:17;;;;;;;15.70;8.10;;;;;;;15.26;34.17;101202.81;5075857;28;20055;-86
2021/03/30 01:21:05;;;;;;;15.00;8.32;;;;;;;15.24;33.87;101202.88;5076943;28;20052;-87
2021/03/30 01:23:41;;;;;;;12.32;7.45;;;;;;;15.19;33.86;101207.59;5077252;28;20052;-87
2021/03/30 01:26:25;;;;;;;13.63;8.07;;;;;;;15.14;34.15;101209.59;5075829;28;20044;-87
2021/03/30 01:29:12;;;;;;;17.33;8.90;;;;;;;15.15;33.93;101206.03;5075849;28;20048;-87
2021/03/30 01:31:45;;;;;;;14.85;7.93;;;;;;;15.13;34.28;101199.09;5045491;28;20051;-87
2021/03/30 01:34:13;;;;;;;16.80;8.80;;;;;;;15.13;34.23;101205.25;5075336;28;20548;-87
2021/03/30 01:36:42;;;;;;;16.85;9.30;;;;;;;15.10;34.32;101205.41;5076787;28;20044;-87
2021/03/30 01:39:10;;;;;;;14.50;8.93;;;;;;;15.11;34.38;101201.84;5075645;28;20056;-87
2021/03/30 01:41:38;;;;;;;13.38;8.27;;;;;;;15.11;34.10;101207.13;5075632;28;20056;-87
2021/03/30 01:44:06;;;;;;;17.42;8.43;;;;;;;15.07;34.45;101198.47;5075416;28;20052;-87
2021/03/30 01:46:33;;;;;;;15.13;9.13;;;;;;;15.07;34.30;101200.28;5076283;28;20059;-86
2021/03/30 01:48:59;;;;;;;16.88;8.85;;;;;;;15.05;34.60;101204.78;5075552;28;20056;-87
2021/03/30 01:51:27;;;;;;;16.88;9.10;;;;;;;15.02;34.42;101194.38;5076671;28;20048;-87
2021/03/30 01:53:54;;;;;;;16.40;9.23;;;;;;;15.02;34.31;101194.38;5076300;28;20057;-87
2021/03/30 01:56:21;;;;;;;17.45;8.80;;;;;;;15.02;34.60;101202.31;5076204;28;20047;-87
2021/03/30 01:58:48;;;;;;;14.38;8.57;;;;;;;15.00;34.52;101205.06;5075357;28;20523;-87
2021/03/30 02:01:15;;;;;;;16.17;9.57;;;;;;;15.01;34.63;101195.28;5075169;28;20489;-87
2021/03/30 02:03:43;;;;;;;18.48;9.32;;;;;;;15.01;34.74;101197.94;5075039;28;20056;-88
2021/03/30 02:06:10;;;;;;;17.52;8.18;;;;;;;15.02;34.53;101191.72;5075045;28;20048;-87
2021/03/30 02:08:38;;;;;;;15.93;8.95;;;;;;;15.02;34.61;101192.56;5074929;28;20060;-87
2021/03/30 02:11:05;;;;;;;14.52;8.60;;;;;;;15.05;34.64;101194.19;5076171;28;20048;-87
2021/03/30 02:16:10;;;;;;;16.17;8.68;;;;;;;15.07;34.61;101187.84;5075694;28;20051;-86
2021/03/30 02:18:43;;;;;;;17.70;9.52;;;;;;;15.07;35.11;101192.31;5074974;28;20049;-87
2021/03/30 02:21:13;;;;;;;18.92;9.43;;;;;;;15.09;35.05;101193.09;5076506;28;20485;-87
2021/03/30 02:23:41;;;;;;;17.10;9.05;;;;;;;15.08;34.80;101191.38;5074859;28;20048;-87
2021/03/30 02:26:09;;;;;;;14.32;8.15;;;;;;;15.06;34.84;101195.91;5075753;28;20040;-87
2021/03/30 02:28:53;;;;;;;20.25;9.57;;;;;;;15.04;34.90;101195.13;5075726;28;20106;-87
2021/03/30 02:31:23;;;;;;;15.98;8.77;;;;;;;15.01;35.06;101192.63;5075871;28;20071;-87
2021/03/30 02:33:53;;;;;;;13.55;8.82;;;;;;;14.98;34.97;101191.88;5074486;28;20421;-87
2021/03/30 02:36:20;;;;;;;15.50;8.70;;;;;;;14.98;34.86;101205.13;5075839;28;20060;-87
2021/03/30 02:38:51;;;;;;;15.10;9.25;;;;;;;14.97;35.15;101200.78;5076249;28;20045;-87
2021/03/30 02:41:18;;;;;;;15.10;8.63;;;;;;;14.97;34.82;101200.78;5074487;28;20485;-87
2021/03/30 02:43:46;;;;;;;18.73;9.00;;;;;;;14.95;35.17;101199.97;5074086;28;20056;-88
2021/03/30 02:46:16;;;;;;;14.93;9.32;;;;;;;14.93;35.50;101199.22;5073904;28;20055;-87
2021/03/30 02:48:43;;;;;;;16.35;9.52;;;;;;;14.95;35.31;101199.97;5074456;28;20052;-87
2021/03/30 02:51:10;;;;;;;16.10;9.48;;;;;;;14.95;35.25;101199.97;5075581;28;20048;-87
2021/03/30 02:53:37;;;;;;;16.90;9.05;;;;;;;14.95;35.12;101199.13;5073888;28;20044;-88
2021/03/30 02:56:06;;;;;;;15.40;9.13;;;;;;;14.95;35.21;101197.31;5073041;28;20114;-87
2021/03/30 02:58:33;;;;;;;18.25;8.30;;;;;;;14.95;34.97;101192.03;5073950;28;20064;-87
2021/03/30 03:01:00;;;;;;;17.50;9.40;;;;;;;14.92;34.91;101186.88;5073972;28;20056;-87
2021/03/30 03:03:31;;;;;;;19.38;9.48;;;;;;;14.90;34.90;101199.38;5074196;28;20048;-87
2021/03/30 03:06:00;;;;;;;16.30;9.13;;;;;;;14.89;35.06;101189.72;5073579;28;20053;-87
2021/03/30 03:08:28;;;;;;;17.33;9.82;;;;;;;14.88;35.00;101198.56;5075068;28;20056;-87
2021/03/30 03:10:55;;;;;;;16.05;9.43;;;;;;;14.86;34.88;101197.81;5074865;28;20060;-87
2021/03/30 03:13:24;;;;;;;17.02;8.95;;;;;;;14.82;34.87;101194.47;5073665;28;20481;-87
2021/03/30 03:15:50;;;;;;;18.48;9.55;;;;;;;14.81;35.08;101191.91;5073674;28;20052;-87
2021/03/30 03:18:17;;;;;;;19.20;9.98;;;;;;;14.79;35.00;101184.00;5074811;28;20421;-87
2021/03/30 03:20:47;;;;;;;16.60;10.23;;;;;;;14.79;35.63;101193.75;5073783;28;20416;-87
2021/03/30 03:23:14;;;;;;;15.57;9.48;;;;;;;14.81;34.89;101198.03;5073673;28;20511;-87
2021/03/30 03:25:43;;;;;;;19.30;9.10;;;;;;;14.81;34.91;101191.91;5072790;28;20052;-87
2021/03/30 03:28:09;;;;;;;17.63;9.00;;;;;;;14.82;35.07;101196.25;5073493;28;20048;-87
2021/03/30 03:30:38;;;;;;;20.63;9.65;;;;;;;14.80;35.16;101201.63;5074820;28;20044;-87
2021/03/30 03:33:09;;;;;;;17.48;9.32;;;;;;;14.77;34.66;101201.78;5073358;28;20044;-87
2021/03/30 03:35:41;;;;;;;16.15;9.07;;;;;;;14.76;34.70;101200.06;5074601;28;20045;-87
2021/03/30 03:38:08;;;;;;;18.90;9.57;;;;;;;14.73;34.58;101194.91;5073019;28;20071;-87
2021/03/30 03:40:34;;;;;;;20.05;8.85;;;;;;;14.71;35.01;101197.66;5074262;28;20044;-87
2021/03/30 03:43:01;;;;;;;17.13;10.10;;;;;;;14.69;34.86;101198.66;5074283;28;20052;-87
2021/03/30 03:45:27;;;;;;;18.52;9.98;;;;;;;14.65;34.62;101197.09;5073056;28;20051;-87
2021/03/30 03:47:53;;;;;;;18.15;9.18;;;;;;;14.60;34.86;101197.31;5100620;22;20056;-88
2021/03/30 03:50:20;;;;;;;19.80;10.25;;;;;;;14.56;35.08;101193.13;5036540;28;20501;-88
2021/03/30 03:52:50;;;;;;;18.38;10.20;;;;;;;14.51;35.28;101195.16;5054244;28;20520;-87
2021/03/30 03:55:17;;;;;;;16.25;10.18;;;;;;;14.48;34.81;101190.88;5036213;28;20136;-87
2021/03/30 03:57:59;;;;;;;17.02;9.48;;;;;;;14.38;35.32;101185.16;5036461;28;20102;-87
2021/03/30 04:00:26;;;;;;;20.38;9.77;;;;;;;14.40;35.01;101193.91;5054177;28;20456;-87
2021/03/30 04:03:31;;;;;;;24.42;10.40;;;;;;;14.32;35.41;101196.06;5036319;28;20516;-87
2021/03/30 04:06:00;;;;;;;22.25;10.35;;;;;;;14.32;35.34;101183.66;5024652;28;20485;-87
2021/03/30 04:08:30;;;;;;;20.90;11.90;;;;;;;14.26;35.64;101197.22;5036328;28;20049;-88
2021/03/30 04:11:00;;;;;;;25.25;12.65;;;;;;;14.20;36.11;101198.38;5036164;28;20048;-88
2021/03/30 04:13:30;;;;;;;18.23;10.68;;;;;;;14.13;35.72;101207.56;5035931;28;20057;-88
2021/03/30 04:16:03;;;;;;;28.85;12.50;;;;;;;14.00;36.58;101203.78;5053697;28;20481;-85
2021/03/30 04:18:31;;;;;;;24.90;14.30;;;;;;;13.88;36.38;101211.41;5053848;28;20061;-85
2021/03/30 04:21:03;;;;;;;25.75;12.25;;;;;;;13.74;36.99;101198.81;5053831;28;20049;-85
2021/03/30 04:23:30;;;;;;;19.00;11.20;;;;;;;13.65;36.97;101212.50;5053792;28;20056;-85
2021/03/30 04:25:57;;;;;;;22.45;11.60;;;;;;;13.54;36.99;101205.88;5035424;28;20490;-85
2021/03/30 04:28:23;;;;;;;19.90;10.88;;;;;;;13.47;36.92;101207.09;5053685;28;20059;-85
2021/03/30 04:30:50;;;;;;;49.67;12.23;;;;;;;13.41;37.16;101204.69;5053867;28;20044;-85
2021/03/30 04:33:16;;;;;;;20.48;11.15;;;;;;;13.36;37.08;101218.16;5053451;28;20053;-85
2021/03/30 04:35:42;;;;;;;18.85;10.32;;;;;;;13.31;37.54;101214.88;5035773;28;20045;-85
2021/03/30 04:38:08;;;;;;;19.73;11.45;;;;;;;13.25;37.61;101210.72;5035122;28;20635;-85
2021/03/30 04:40:35;;;;;;;20.08;10.80;;;;;;;13.19;37.62;101216.25;5053321;28;20554;-85
2021/03/30 04:43:02;;;;;;;37.08;11.18;;;;;;;13.10;37.34;101212.25;5036070;28;20052;-85
2021/03/30 04:45:28;;;;;;;24.88;11.70;;;;;;;13.02;37.55;101209.91;5053162;28;20485;-85
2021/03/30 04:47:54;;;;;;;29.05;11.88;;;;;;;12.98;37.96;101212.78;5035592;28;20045;-85
2021/03/30 04:50:21;;;;;;;18.63;10.57;;;;;;;12.92;37.85;101221.84;5053304;28;20059;-84
2021/03/30 04:52:47;;;;;;;21.05;10.70;;;;;;;12.89;38.02;101220.19;5035724;28;20053;-85
2021/03/30 04:55:14;;;;;;;24.58;10.95;;;;;;;12.89;37.92;101217.53;5035267;28;20481;-85
2021/03/30 04:57:41;;;;;;;21.00;10.75;;;;;;;12.90;38.22;101216.59;5035682;28;20045;-85
2021/03/30 05:00:07;;;;;;;18.10;10.32;;;;;;;12.93;37.88;101217.41;5035632;28;20045;-85
2021/03/30 05:02:34;;;;;;;19.00;10.27;;;;;;;12.96;37.65;101219.91;5053056;28;20512;-85
2021/03/30 05:05:00;;;;;;;21.38;10.38;;;;;;;12.99;37.53;101220.66;5052795;28;20057;-85
2021/03/30 05:07:26;;;;;;;21.85;10.85;;;;;;;13.03;37.46;101222.22;5052983;28;20041;-85
2021/03/30 05:09:52;;;;;;;20.90;10.13;;;;;;;13.09;37.84;101228.19;5052924;28;20509;-85
2021/03/30 05:12:19;;;;;;;18.92;9.43;;;;;;;13.15;37.21;101230.53;5035286;28;20056;-85
2021/03/30 05:14:45;;;;;;;18.60;9.98;;;;;;;13.21;37.10;101234.69;5035268;28;20053;-85
2021/03/30 05:17:11;;;;;;;19.42;10.55;;;;;;;13.27;36.92;101230.00;5035677;28;20054;-85
2021/03/30 05:19:40;;;;;;;23.33;10.60;;;;;;;13.32;37.06;101239.50;5035413;28;20060;-85
2021/03/30 05:22:06;;;;;;;22.92;10.05;;;;;;;13.37;36.72;101235.72;5035332;28;20049;-85
2021/03/30 05:24:32;;;;;;;18.58;10.10;;;;;;;13.40;36.72;101238.25;5034948;28;20052;-85
2021/03/30 05:26:58;;;;;;;18.95;10.02;;;;;;;13.45;36.52;101242.47;5035269;28;20405;-85
2021/03/30 05:29:24;;;;;;;21.38;10.23;;;;;;;13.47;36.31;101243.25;5052860;28;20057;-85
2021/03/30 05:31:50;;;;;;;48.75;11.88;;;;;;;13.50;36.55;101246.63;5053036;28;20444;-85
2021/03/30 05:34:16;;;;;;;19.10;11.02;;;;;;;13.53;36.97;101246.50;5052670;28;20072;-86
2021/03/30 05:36:42;;;;;;;25.85;11.27;;;;;;;13.56;37.20;101250.78;5052878;28;20053;-86
2021/03/30 05:39:09;;;;;;;18.80;10.60;;;;;;;13.55;37.05;101247.31;5052740;28;20056;-85
2021/03/30 05:41:39;;;;;;;23.02;11.25;;;;;;;13.51;37.45;101253.66;5052991;28;20053;-84
2021/03/30 05:44:06;;;;;;;20.10;11.20;;;;;;;13.46;37.42;101258.25;5034888;28;20053;-84
2021/03/30 05:46:34;;;;;;;21.77;10.73;;;;;;;13.39;37.44;101262.13;5035047;28;20055;-84
2021/03/30 05:49:01;;;;;;;31.92;11.90;;;;;;;13.31;37.70;101265.13;5054693;28;20056;-84
2021/03/30 05:51:30;;;;;;;24.48;11.70;;;;;;;13.21;38.08;101258.50;5038676;28;20068;-85
2021/03/30 05:53:58;;;;;;;21.30;11.93;;;;;;;13.11;38.35;101266.84;5056321;28;20052;-84
2021/03/30 05:56:27;;;;;;;21.52;11.82;;;;;;;13.00;38.32;101266.44;5038837;28;20409;-84
2021/03/30 05:58:57;;;;;;;24.33;11.80;;;;;;;12.90;38.96;101268.63;5056522;28;20049;-84
2021/03/30 06:01:24;;;;;;;21.58;11.63;;;;;;;12.82;38.43;101274.22;5038808;28;20512;-84
2021/03/30 06:03:53;;;;;;;21.40;12.00;;;;;;;12.74;39.43;101276.31;5056134;28;20072;-84
2021/03/30 06:06:20;;;;;;;21.75;11.98;;;;;;;12.69;39.45;101279.16;5056212;28;20048;-84
2021/03/30 06:08:46;;;;;;;21.17;11.63;;;;;;;12.64;39.60;101278.50;5038648;28;20425;-84
2021/03/30 06:11:12;;;;;;;22.45;12.55;;;;;;;12.60;39.66;101284.84;5056112;28;20048;-84
2021/03/30 06:13:55;;;;;;;20.60;12.35;;;;;;;12.51;40.57;101280.78;5038358;28;20045;-85
2021/03/30 06:16:23;;;;;;;25.20;12.65;;;;;;;12.50;39.73;101279.94;5056076;28;20413;-87
2021/03/30 06:19:01;;;;;;;26.60;12.25;;;;;;;12.46;40.32;101280.09;5038126;28;20606;-87
2021/03/30 06:21:27;;;;;;;23.15;12.07;;;;;;;12.49;39.90;101286.09;5038240;28;20072;-87
2021/03/30 06:23:55;;;;;;;24.33;13.05;;;;;;;12.51;40.14;101283.41;5037959;28;20049;-86
2021/03/30 06:26:24;;;;;;;23.42;12.52;;;;;;;12.54;40.41;101287.72;5055817;28;20429;-86
2021/03/30 06:28:52;;;;;;;21.58;11.15;;;;;;;12.58;39.51;101284.03;5055852;28;20057;-86
2021/03/30 06:31:18;;;;;;;21.52;10.95;;;;;;;12.66;39.25;101291.63;5038185;28;20053;-87
2021/03/30 06:33:51;;;;;;;24.73;11.35;;;;;;;12.72;39.70;101294.03;5055604;28;20115;-86
2021/03/30 06:36:20;;;;;;;20.35;11.65;;;;;;;12.83;40.08;101291.81;5038118;28;20490;-86
2021/03/30 06:39:03;;;;;;;23.60;11.40;;;;;;;12.90;39.28;101289.75;5037821;28;20049;-87
2021/03/30 06:41:40;;;;;;;21.60;11.03;;;;;;;13.02;39.08;101293.66;5038412;28;20052;-87
2021/03/30 06:46:53;;;;;;;23.60;12.02;;;;;;;13.27;39.02;101305.84;5055166;28;20045;-87
2021/03/30 06:49:20;;;;;;;18.85;10.93;;;;;;;13.38;38.43;101300.91;5037724;28;20052;-87
2021/03/30 06:51:48;;;;;;;20.27;11.52;;;;;;;13.50;38.56;101298.69;5037577;28;20057;-86
2021/03/30 06:54:15;;;;;;;23.20;10.80;;;;;;;13.59;38.36;101293.00;5054979;28;20521;-87
2021/03/30 06:56:48;;;;;;;23.98;12.07;;;;;;;13.68;38.48;101294.34;5037654;28;20122;-87
2021/03/30 06:59:15;;;;;;;20.08;10.18;;;;;;;13.80;38.16;101300.91;5055242;28;20053;-87
2021/03/30 07:01:42;;;;;;;20.77;11.77;;;;;;;13.88;38.43;101303.19;5054592;28;20053;-87
2021/03/30 07:04:10;;;;;;;19.08;11.00;;;;;;;13.96;37.63;101302.81;5054858;28;20421;-87
2021/03/30 07:06:38;;;;;;;22.30;12.02;;;;;;;14.03;37.71;101304.25;5055059;28;20071;-86
2021/03/30 07:09:09;;;;;;;30.73;12.25;;;;;;;14.10;37.13;101303.06;5037510;28;20056;-87
2021/03/30 07:11:37;;;;;;;21.73;11.88;;;;;;;14.18;37.27;101305.31;5055150;28;20048;-87
2021/03/30 07:14:04;;;;;;;25.75;11.10;;;;;;;14.25;36.70;101303.25;5037172;28;20060;-87
2021/03/30 07:16:35;;;;;;;23.58;10.95;;;;;;;14.31;36.75;101297.63;5054957;28;20053;-87
2021/03/30 07:19:03;;;;;;;20.10;10.77;;;;;;;14.38;37.02;101296.41;5055262;28;20056;-87
2021/03/30 07:21:34;;;;;;;22.30;11.20;;;;;;;14.44;36.89;101306.72;5054839;28;20063;-86
2021/03/30 07:24:08;;;;;;;22.30;11.73;;;;;;;14.49;36.52;101306.50;5054645;28;20417;-86
2021/03/30 07:26:55;;;;;;;19.55;10.70;;;;;;;14.54;36.22;101312.44;5054591;28;20528;-84
2021/03/30 07:29:36;;;;;;;23.73;11.68;;;;;;;14.61;36.30;101307.69;5037070;28;20053;-84
2021/03/30 07:32:28;;;;;;;22.27;10.93;;;;;;;14.66;35.81;101304.81;5054770;28;20052;-85
2021/03/30 07:35:17;;;;;;;22.40;11.25;;;;;;;14.71;35.73;101316.91;5036548;28;20049;-84
2021/03/30 07:38:17;;;;;;;19.02;11.00;;;;;;;14.77;35.81;101322.88;5054315;28;20060;-84
2021/03/30 07:40:45;;;;;;;23.08;11.70;;;;;;;14.86;35.89;101325.06;5036727;28;20044;-85
2021/03/30 07:43:24;;;;;;;22.08;11.02;;;;;;;14.86;35.18;101319.75;5054549;28;20128;-85
2021/03/30 07:45:54;;;;;;;18.75;10.63;;;;;;;14.93;35.57;101310.56;5036705;28;20045;-85
2021/03/30 07:48:24;;;;;;;19.95;11.00;;;;;;;15.00;36.21;101312.91;5036342;28;20049;-85
2021/03/30 07:50:55;;;;;;;21.52;11.48;;;;;;;15.04;36.15;101325.94;5036696;28;20147;-84
2021/03/30 07:53:41;;;;;;;21.75;10.57;;;;;;;15.08;36.18;101321.31;5054692;28;20067;-85
2021/03/30 07:56:13;;;;;;;20.17;10.93;;;;;;;15.17;36.03;101320.84;5054356;28;20490;-84
2021/03/30 07:58:42;;;;;;;18.75;10.75;;;;;;;15.22;35.57;101329.44;5054484;28;20060;-84
2021/03/30 08:01:11;;;;;;;20.85;11.98;;;;;;;15.28;35.75;101330.06;5054671;28;20081;-84
2021/03/30 08:03:39;;;;;;;22.70;11.80;;;;;;;15.31;35.57;101320.16;5054380;28;20045;-84
2021/03/30 08:06:19;;;;;;;21.35;10.63;;;;;;;15.36;35.33;101326.06;5053949;28;20049;-84
2021/03/30 08:09:07;;;;;;;19.80;10.02;;;;;;;15.43;35.60;101326.59;5054052;28;20057;-84
2021/03/30 08:11:39;;;;;;;26.15;11.40;;;;;;;15.46;35.34;101326.44;5036553;28;20056;-84
2021/03/30 08:14:09;;;;;;;20.63;10.80;;;;;;;15.52;35.29;101317.31;5053975;28;20084;-84
2021/03/30 08:16:37;;;;;;;26.85;11.77;;;;;;;15.58;35.29;101334.69;5053992;28;20088;-84
2021/03/30 08:19:12;;;;;;;24.65;11.48;;;;;;;15.59;35.28;101331.13;5036092;28;20493;-84
2021/03/30 08:22:00;;;;;;;20.48;11.05;;;;;;;15.64;35.20;101345.00;5054483;28;20060;-82
2021/03/30 08:24:47;;;;;;;22.52;11.00;;;;;;;15.71;35.06;101340.22;5054111;28;20493;-82
2021/03/30 08:27:38;;;;;;;20.02;11.20;;;;;;;15.73;34.76;101343.63;5040502;28;20227;-82
2021/03/30 08:30:08;;;;;;;20.55;11.38;;;;;;;15.81;34.74;101340.59;5054486;28;20049;-82
2021/03/30 08:32:34;;;;;;;21.10;10.77;;;;;;;15.86;35.00;101333.22;5054386;28;20056;-82
2021/03/30 08:35:13;;;;;;;19.58;10.77;;;;;;;15.86;34.69;101338.53;5054018;28;20075;-82
2021/03/30 08:37:42;;;;;;;19.20;11.48;;;;;;;15.92;34.70;101338.19;5054093;28;20045;-82
2021/03/30 08:40:36;;;;;;;16.95;10.52;;;;;;;15.92;34.54;101337.34;5054008;28;20060;-82
2021/03/30 08:43:14;;;;;;;18.17;10.85;;;;;;;15.97;34.25;101336.19;5054210;28;20132;-82
2021/03/30 08:45:55;;;;;;;21.02;10.68;;;;;;;16.00;34.43;101343.97;5053726;28;20055;-82
2021/03/30 08:48:34;;;;;;;19.88;11.45;;;;;;;16.04;34.39;101338.50;5053752;28;20055;-82
2021/03/30 08:51:04;;;;;;;14.95;9.07;;;;;;;16.11;33.96;101340.72;5053520;28;20056;-82
2021/03/30 08:53:31;;;;;;;25.80;11.48;;;;;;;16.17;33.84;101344.84;5053756;28;20064;-83
2021/03/30 08:55:59;;;;;;;20.17;11.27;;;;;;;16.21;34.34;101346.41;5035850;28;20049;-82
2021/03/30 08:58:28;;;;;;;25.85;10.13;;;;;;;16.27;34.00;101348.69;5053776;28;20395;-83
2021/03/30 09:00:56;;;;;;;20.00;11.00;;;;;;;16.33;33.92;101344.00;5053836;28;20064;-82
2021/03/30 09:03:29;;;;;;;20.52;11.85;;;;;;;16.39;33.93;101348.97;5054054;28;20045;-82
2021/03/30 09:05:55;;;;;;;;;;;;;;;16.47;33.98;101351.19;5054251;28;20071;-82
2021/03/30 09:08:38;;;;;;;19.15;10.45;;;;;;;16.55;33.39;101351.63;5054494;28;19921;-82
2021/03/30 09:11:22;;;;;;;19.88;10.10;;;;;;;16.61;33.60;101345.97;5054493;28;20044;-83
2021/03/30 09:13:57;;;;;;;;;;;;;;;16.71;33.70;101351.59;5054370;28;20053;-81
2021/03/30 09:16:23;;;;;;;20.30;11.38;;;;;;;16.84;33.56;101348.22;5054295;28;19921;-82
2021/03/30 09:18:49;;;;;;;26.42;11.90;;;;;;;16.89;34.03;101344.34;5054210;28;20448;-82
2021/03/30 09:21:20;;;;;;;20.80;11.13;;;;;;;16.96;33.88;101346.69;5054279;28;20049;-82
2021/03/30 09:23:47;;;;;;;22.85;11.88;;;;;;;17.03;34.13;101350.66;5055530;28;20071;-81
2021/03/30 09:26:16;;;;;;;20.10;11.55;;;;;;;17.11;34.02;101355.56;5058071;28;20041;-82
2021/03/30 09:28:43;;;;;;;20.05;11.77;;;;;;;17.19;33.92;101353.31;5057772;28;20053;-83
2021/03/30 09:31:11;;;;;;;21.65;11.93;;;;;;;17.27;33.73;101350.22;5057840;28;20049;-83
2021/03/30 09:33:38;;;;;;;21.52;11.07;;;;;;;17.35;33.73;101347.06;5057737;28;20126;-82
2021/03/30 09:36:11;;;;;;;19.92;11.95;;;;;;;17.40;33.52;101340.53;5057869;28;20045;-84
2021/03/30 09:38:52;;;;;;;20.15;10.35;;;;;;;17.51;33.17;101341.66;5057751;28;20076;-83
2021/03/30 09:41:39;;;;;;;18.17;10.07;;;;;;;17.62;32.43;101341.00;5058114;28;20048;-83
2021/03/30 09:44:07;;;;;;;21.10;10.57;;;;;;;17.77;32.81;101342.75;5057596;28;20052;-82
2021/03/30 09:49:25;;;;;;;18.92;9.80;;;;;;;18.00;32.92;101339.56;5074611;28;20467;-90
2021/03/30 09:51:53;;;;;;;18.75;9.95;;;;;;;18.11;32.71;101342.44;5075886;28;20044;-90
2021/03/30 09:54:25;;;;;;;18.17;9.30;;;;;;;18.24;31.38;101342.50;5075746;28;20056;-90
2021/03/30 09:57:11;;;;;;;17.92;10.82;;;;;;;18.34;31.93;101348.09;5075639;28;20055;-90
2021/03/30 09:59:37;;;;;;;18.65;10.55;;;;;;;18.49;32.54;101348.94;5075375;28;20049;-90
2021/03/30 10:02:04;;;;;;;19.80;10.93;;;;;;;18.59;32.67;101349.19;5075339;28;20113;-90
2021/03/30 10:04:34;;;;;;;17.70;10.48;;;;;;;18.69;32.93;101342.28;5075220;28;20053;-90
2021/03/30 10:07:13;;;;;;;22.20;11.35;;;;;;;18.78;31.34;101350.63;5075390;28;20040;-90
2021/03/30 10:09:59;;;;;;;22.13;11.10;;;;;;;18.91;31.97;101346.19;5075229;28;20106;-90
2021/03/30 10:12:30;;;;;;;20.60;11.40;;;;;;;19.07;32.02;101346.06;5075658;28;20044;-90
2021/03/30 10:14:56;;;;;;;20.45;10.85;;;;;;;19.19;31.54;101346.16;5075324;28;20053;-91
2021/03/30 10:17:24;;;;;;;20.27;11.13;;;;;;;19.29;31.55;101339.25;5075095;28;20048;-90
2021/03/30 10:19:53;;;;;;;23.65;11.48;;;;;;;19.40;32.15;101346.53;5075179;28;20057;-91
2021/03/30 10:22:32;;;;;;;17.75;10.60;;;;;;;19.51;30.92;101340.44;5074817;28;20056;-91
2021/03/30 10:25:13;;;;;;;20.85;11.00;;;;;;;19.62;30.56;101343.19;5074914;28;20048;-91
2021/03/30 10:27:48;;;;;;;19.77;10.05;;;;;;;19.74;29.66;101344.13;5076069;28;20431;-90
2021/03/30 10:30:14;;;;;;;13.68;8.50;;;;;;;19.90;30.85;101341.25;5075172;28;20045;-90
2021/03/30 10:32:51;;;;;;;15.68;9.20;;;;;;;20.02;30.23;101336.00;5076032;28;20048;-90
2021/03/30 10:35:21;;;;;;;15.85;8.88;;;;;;;20.16;30.79;101333.22;5076551;28;20045;-90
2021/03/30 10:37:47;;;;;;;13.80;8.55;;;;;;;20.35;29.36;101336.34;5076229;28;20048;-90
2021/03/30 10:40:14;;;;;;;13.52;8.40;;;;;;;20.50;28.94;101340.56;5074783;28;20060;-90
2021/03/30 10:42:41;;;;;;;22.13;9.13;;;;;;;20.62;28.30;101330.78;5075955;28;20059;-88
2021/03/30 10:45:09;;;;;;;12.40;8.57;;;;;;;20.75;28.43;101335.19;5080448;28;20052;-89
2021/03/30 10:47:39;;;;;;;14.15;9.13;;;;;;;20.87;28.38;101337.00;5087374;28;20400;-88
2021/03/30 10:50:17;;;;;;;16.65;9.38;;;;;;;20.99;28.07;101335.19;5087565;28;20055;-88
2021/03/30 10:52:43;;;;;;;15.07;9.00;;;;;;;21.14;28.25;101324.28;5087539;28;20055;-88
2021/03/30 10:55:16;;;;;;;12.95;8.18;;;;;;;21.26;28.50;101330.53;5087931;28;20074;-88
2021/03/30 10:57:45;;;;;;;16.20;8.15;;;;;;;21.39;27.66;101325.91;5088859;28;20048;-88
2021/03/30 11:00:13;;;;;;;14.40;8.27;;;;;;;21.54;28.24;101320.31;5082861;28;20421;-89
2021/03/30 11:02:39;;;;;;;13.88;8.48;;;;;;;21.68;28.16;101317.38;5074317;28;20386;-87
2021/03/30 11:05:09;;;;;;;12.23;7.93;;;;;;;21.85;27.14;101315.22;5075261;28;20094;-88
2021/03/30 11:07:36;;;;;;;17.98;7.45;;;;;;;22.03;26.93;101302.16;5073865;28;20052;-87
2021/03/30 11:10:06;;;;;;;14.82;7.22;;;;;;;22.24;26.44;101306.75;5075156;28;20052;-88
2021/03/30 11:12:34;;;;;;;10.25;6.05;;;;;;;22.52;26.71;101307.16;5073892;28;20056;-88
2021/03/30 11:15:05;;;;;;;10.93;6.57;;;;;;;22.87;25.93;101302.47;5073723;28;20136;-88
2021/03/30 11:17:32;;;;;;;10.38;6.07;;;;;;;23.37;27.49;101301.84;5073529;28;20051;-88
2021/03/30 11:19:59;;;;;;;9.57;6.50;;;;;;;23.98;27.28;101309.97;5073568;28;20512;-89
2021/03/30 11:22:27;;;;;;;8.88;5.72;;;;;;;24.69;25.95;101296.47;5057351;28;20048;-88
2021/03/30 11:24:59;;;;;;;7.70;5.05;;;;;;;25.44;25.36;101300.31;5073523;28;20048;-89
2021/03/30 11:27:27;;;;;;;7.63;5.20;;;;;;;26.22;26.05;101298.22;5085679;28;20045;-88
2021/03/30 11:36:24;;;;;;;7.63;4.75;;;;;;;28.67;20.37;101294.59;5032642;28;20087;-91
2021/03/30 11:39:00;;;;;;;10.20;4.47;;;;;;;29.29;21.59;101285.03;5016720;28;20057;-92
2021/03/30 11:41:46;;;;;;;7.85;4.55;;;;;;;29.80;21.23;101281.13;5018935;28;20046;-91
2021/03/30 11:44:21;;;;;;;10.93;5.22;;;;;;;30.19;19.27;101287.50;5017678;28;20140;-92